sensor_id;sensor_type;location;lat;lon;timestamp;P1;durP1;ratioP1;P2;durP2;ratioP2
56860;SDS011;42744;51.094;3.490;2023-04-24T00:00:28;13.40;;;10.20;;
56860;SDS011;42744;51.094;3.490;2023-04-24T00:02:55;14.10;;;10.70;;
56860;SDS011;42744;51.094;3.490;2023-04-24T00:05:22;15.63;;;11.73;;
56860;SDS011;42744;51.094;3.490;2023-04-24T00:07:48;18.97;;;12.67;;
56860;SDS011;42744;51.094;3.490;2023-04-24T00:10:14;16.47;;;13.27;;
56860;SDS011;42744;51.094;3.490;2023-04-24T00:12:40;15.10;;;12.00;;
56860;SDS011;42744;51.094;3.490;2023-04-24T00:15:06;16.27;;;11.93;;
56860;SDS011;42744;51.094;3.490;2023-04-24T00:17:33;12.50;;;11.20;;
56860;SDS011;42744;51.094;3.490;2023-04-24T00:19:59;12.30;;;9.83;;
56860;SDS011;42744;51.094;3.490;2023-04-24T00:22:26;12.90;;;9.77;;
56860;SDS011;42744;51.094;3.490;2023-04-24T00:24:53;12.30;;;10.77;;
56860;SDS011;42744;51.094;3.490;2023-04-24T00:27:20;9.23;;;7.90;;
56860;SDS011;42744;51.094;3.490;2023-04-24T00:29:46;11.43;;;7.83;;
56860;SDS011;42744;51.094;3.490;2023-04-24T00:32:13;8.53;;;6.53;;
56860;SDS011;42744;51.094;3.490;2023-04-24T00:34:39;7.67;;;6.10;;
56860;SDS011;42744;51.094;3.490;2023-04-24T00:37:05;8.37;;;5.50;;
56860;SDS011;42744;51.094;3.490;2023-04-24T00:39:32;8.50;;;6.00;;
56860;SDS011;42744;51.094;3.490;2023-04-24T00:41:58;9.70;;;6.37;;
56860;SDS011;42744;51.094;3.490;2023-04-24T00:44:25;8.80;;;6.60;;
56860;SDS011;42744;51.094;3.490;2023-04-24T00:46:51;9.70;;;7.10;;
56860;SDS011;42744;51.094;3.490;2023-04-24T00:49:21;9.77;;;7.43;;
56860;SDS011;42744;51.094;3.490;2023-04-24T00:51:47;11.80;;;9.07;;
56860;SDS011;42744;51.094;3.490;2023-04-24T00:54:15;11.77;;;9.00;;
56860;SDS011;42744;51.094;3.490;2023-04-24T00:56:41;13.50;;;9.77;;
56860;SDS011;42744;51.094;3.490;2023-04-24T00:59:09;14.93;;;11.00;;
56860;SDS011;42744;51.094;3.490;2023-04-24T01:01:35;13.63;;;10.83;;
56860;SDS011;42744;51.094;3.490;2023-04-24T01:04:02;14.50;;;11.20;;
56860;SDS011;42744;51.094;3.490;2023-04-24T01:06:28;14.03;;;10.53;;
56860;SDS011;42744;51.094;3.490;2023-04-24T01:08:57;15.17;;;10.67;;
56860;SDS011;42744;51.094;3.490;2023-04-24T01:11:24;14.87;;;10.00;;
56860;SDS011;42744;51.094;3.490;2023-04-24T01:13:50;16.63;;;11.43;;
56860;SDS011;42744;51.094;3.490;2023-04-24T01:16:17;14.83;;;12.30;;
56860;SDS011;42744;51.094;3.490;2023-04-24T01:18:46;17.57;;;12.67;;
56860;SDS011;42744;51.094;3.490;2023-04-24T01:21:13;21.20;;;13.47;;
56860;SDS011;42744;51.094;3.490;2023-04-24T01:23:43;23.90;;;14.90;;
56860;SDS011;42744;51.094;3.490;2023-04-24T01:26:13;20.53;;;15.10;;
56860;SDS011;42744;51.094;3.490;2023-04-24T01:28:42;19.00;;;15.97;;
56860;SDS011;42744;51.094;3.490;2023-04-24T01:31:08;22.03;;;16.53;;
56860;SDS011;42744;51.094;3.490;2023-04-24T01:33:34;23.73;;;16.70;;
56860;SDS011;42744;51.094;3.490;2023-04-24T01:36:00;18.40;;;15.03;;
56860;SDS011;42744;51.094;3.490;2023-04-24T01:38:26;20.50;;;14.80;;
56860;SDS011;42744;51.094;3.490;2023-04-24T01:40:53;21.83;;;14.53;;
56860;SDS011;42744;51.094;3.490;2023-04-24T01:43:19;19.57;;;15.27;;
56860;SDS011;42744;51.094;3.490;2023-04-24T01:45:46;19.20;;;15.03;;
56860;SDS011;42744;51.094;3.490;2023-04-24T01:48:12;21.43;;;15.83;;
56860;SDS011;42744;51.094;3.490;2023-04-24T01:50:39;20.43;;;15.47;;
56860;SDS011;42744;51.094;3.490;2023-04-24T01:53:04;23.20;;;15.70;;
56860;SDS011;42744;51.094;3.490;2023-04-24T01:55:31;21.13;;;15.47;;
56860;SDS011;42744;51.094;3.490;2023-04-24T01:57:57;20.97;;;15.90;;
56860;SDS011;42744;51.094;3.490;2023-04-24T02:00:26;25.87;;;16.80;;
56860;SDS011;42744;51.094;3.490;2023-04-24T02:02:52;20.73;;;14.80;;
56860;SDS011;42744;51.094;3.490;2023-04-24T02:05:18;18.77;;;15.23;;
56860;SDS011;42744;51.094;3.490;2023-04-24T02:07:44;18.93;;;15.00;;
56860;SDS011;42744;51.094;3.490;2023-04-24T02:10:10;17.63;;;10.73;;
56860;SDS011;42744;51.094;3.490;2023-04-24T02:12:41;17.63;;;10.33;;
56860;SDS011;42744;51.094;3.490;2023-04-24T02:15:07;17.03;;;8.67;;
56860;SDS011;42744;51.094;3.490;2023-04-24T02:17:36;7.67;;;5.07;;
56860;SDS011;42744;51.094;3.490;2023-04-24T02:20:03;5.90;;;4.47;;
56860;SDS011;42744;51.094;3.490;2023-04-24T02:22:30;9.80;;;3.90;;
56860;SDS011;42744;51.094;3.490;2023-04-24T02:24:56;7.97;;;3.93;;
56860;SDS011;42744;51.094;3.490;2023-04-24T02:27:22;7.83;;;3.33;;
56860;SDS011;42744;51.094;3.490;2023-04-24T02:29:48;8.23;;;3.40;;
56860;SDS011;42744;51.094;3.490;2023-04-24T02:32:14;9.03;;;3.30;;
56860;SDS011;42744;51.094;3.490;2023-04-24T02:34:42;9.63;;;3.47;;
56860;SDS011;42744;51.094;3.490;2023-04-24T02:37:08;7.17;;;3.27;;
56860;SDS011;42744;51.094;3.490;2023-04-24T02:39:35;9.17;;;3.73;;
56860;SDS011;42744;51.094;3.490;2023-04-24T02:42:01;10.80;;;3.60;;
56860;SDS011;42744;51.094;3.490;2023-04-24T02:44:29;9.77;;;3.63;;
56860;SDS011;42744;51.094;3.490;2023-04-24T02:46:55;9.90;;;4.03;;
56860;SDS011;42744;51.094;3.490;2023-04-24T02:49:21;7.77;;;3.87;;
56860;SDS011;42744;51.094;3.490;2023-04-24T02:51:47;10.03;;;3.97;;
56860;SDS011;42744;51.094;3.490;2023-04-24T02:54:13;9.03;;;4.63;;
56860;SDS011;42744;51.094;3.490;2023-04-24T02:56:39;10.50;;;4.70;;
56860;SDS011;42744;51.094;3.490;2023-04-24T02:59:06;12.73;;;5.03;;
56860;SDS011;42744;51.094;3.490;2023-04-24T03:01:32;8.67;;;5.07;;
56860;SDS011;42744;51.094;3.490;2023-04-24T03:03:58;10.87;;;6.07;;
56860;SDS011;42744;51.094;3.490;2023-04-24T03:06:24;11.53;;;6.10;;
56860;SDS011;42744;51.094;3.490;2023-04-24T03:08:51;11.13;;;6.60;;
56860;SDS011;42744;51.094;3.490;2023-04-24T03:11:17;17.50;;;6.97;;
56860;SDS011;42744;51.094;3.490;2023-04-24T03:13:43;12.50;;;6.83;;
56860;SDS011;42744;51.094;3.490;2023-04-24T03:16:09;15.53;;;7.67;;
56860;SDS011;42744;51.094;3.490;2023-04-24T03:18:35;13.83;;;8.07;;
56860;SDS011;42744;51.094;3.490;2023-04-24T03:21:02;12.80;;;8.47;;
56860;SDS011;42744;51.094;3.490;2023-04-24T03:23:29;15.20;;;9.10;;
56860;SDS011;42744;51.094;3.490;2023-04-24T03:25:56;16.47;;;9.33;;
56860;SDS011;42744;51.094;3.490;2023-04-24T03:28:21;18.77;;;9.50;;
56860;SDS011;42744;51.094;3.490;2023-04-24T03:30:48;14.10;;;8.80;;
56860;SDS011;42744;51.094;3.490;2023-04-24T03:33:15;17.07;;;9.47;;
56860;SDS011;42744;51.094;3.490;2023-04-24T03:35:42;17.97;;;9.83;;
56860;SDS011;42744;51.094;3.490;2023-04-24T03:38:08;18.03;;;9.40;;
56860;SDS011;42744;51.094;3.490;2023-04-24T03:40:38;20.20;;;10.20;;
56860;SDS011;42744;51.094;3.490;2023-04-24T03:43:04;13.60;;;8.70;;
56860;SDS011;42744;51.094;3.490;2023-04-24T03:45:31;12.27;;;9.00;;
56860;SDS011;42744;51.094;3.490;2023-04-24T03:47:57;14.10;;;8.43;;
56860;SDS011;42744;51.094;3.490;2023-04-24T03:50:23;18.07;;;9.63;;
56860;SDS011;42744;51.094;3.490;2023-04-24T03:52:52;17.33;;;9.17;;
56860;SDS011;42744;51.094;3.490;2023-04-24T03:55:22;20.43;;;9.23;;
56860;SDS011;42744;51.094;3.490;2023-04-24T03:57:48;15.73;;;9.17;;
56860;SDS011;42744;51.094;3.490;2023-04-24T04:00:17;14.87;;;8.70;;
56860;SDS011;42744;51.094;3.490;2023-04-24T04:02:44;13.83;;;8.97;;
56860;SDS011;42744;51.094;3.490;2023-04-24T04:05:10;15.27;;;8.77;;
56860;SDS011;42744;51.094;3.490;2023-04-24T04:07:36;17.53;;;8.97;;
56860;SDS011;42744;51.094;3.490;2023-04-24T04:10:02;15.83;;;8.70;;
56860;SDS011;42744;51.094;3.490;2023-04-24T04:12:29;15.63;;;9.60;;
56860;SDS011;42744;51.094;3.490;2023-04-24T04:14:55;12.20;;;8.37;;
56860;SDS011;42744;51.094;3.490;2023-04-24T04:17:21;13.93;;;9.27;;
56860;SDS011;42744;51.094;3.490;2023-04-24T04:19:47;14.07;;;9.23;;
56860;SDS011;42744;51.094;3.490;2023-04-24T04:22:13;14.23;;;8.40;;
56860;SDS011;42744;51.094;3.490;2023-04-24T04:24:39;17.07;;;9.70;;
56860;SDS011;42744;51.094;3.490;2023-04-24T04:27:06;12.07;;;8.50;;
56860;SDS011;42744;51.094;3.490;2023-04-24T04:29:33;14.77;;;8.97;;
56860;SDS011;42744;51.094;3.490;2023-04-24T04:32:02;16.77;;;9.63;;
56860;SDS011;42744;51.094;3.490;2023-04-24T04:34:28;14.70;;;8.73;;
56860;SDS011;42744;51.094;3.490;2023-04-24T04:36:55;13.23;;;8.53;;
56860;SDS011;42744;51.094;3.490;2023-04-24T04:39:22;16.07;;;8.67;;
56860;SDS011;42744;51.094;3.490;2023-04-24T04:41:49;15.80;;;8.67;;
56860;SDS011;42744;51.094;3.490;2023-04-24T04:44:16;17.93;;;8.93;;
56860;SDS011;42744;51.094;3.490;2023-04-24T04:46:42;16.17;;;9.13;;
56860;SDS011;42744;51.094;3.490;2023-04-24T04:49:10;14.53;;;9.30;;
56860;SDS011;42744;51.094;3.490;2023-04-24T04:51:36;17.13;;;9.57;;
56860;SDS011;42744;51.094;3.490;2023-04-24T04:54:03;15.33;;;9.70;;
56860;SDS011;42744;51.094;3.490;2023-04-24T04:56:30;23.07;;;9.90;;
56860;SDS011;42744;51.094;3.490;2023-04-24T04:58:58;17.93;;;9.70;;
56860;SDS011;42744;51.094;3.490;2023-04-24T05:01:25;14.10;;;9.37;;
56860;SDS011;42744;51.094;3.490;2023-04-24T05:03:53;18.20;;;9.80;;
56860;SDS011;42744;51.094;3.490;2023-04-24T05:06:20;15.77;;;9.60;;
56860;SDS011;42744;51.094;3.490;2023-04-24T05:08:46;17.07;;;9.83;;
56860;SDS011;42744;51.094;3.490;2023-04-24T05:11:13;14.87;;;9.67;;
56860;SDS011;42744;51.094;3.490;2023-04-24T05:13:40;16.37;;;10.03;;
56860;SDS011;42744;51.094;3.490;2023-04-24T05:16:08;20.67;;;10.00;;
56860;SDS011;42744;51.094;3.490;2023-04-24T05:18:35;18.90;;;10.37;;
56860;SDS011;42744;51.094;3.490;2023-04-24T05:21:01;17.20;;;10.67;;
56860;SDS011;42744;51.094;3.490;2023-04-24T05:23:28;19.23;;;10.73;;
56860;SDS011;42744;51.094;3.490;2023-04-24T05:25:54;18.60;;;11.43;;
56860;SDS011;42744;51.094;3.490;2023-04-24T05:28:20;19.90;;;12.07;;
56860;SDS011;42744;51.094;3.490;2023-04-24T05:30:49;18.83;;;11.37;;
56860;SDS011;42744;51.094;3.490;2023-04-24T05:33:15;21.23;;;11.77;;
56860;SDS011;42744;51.094;3.490;2023-04-24T05:35:41;23.00;;;11.83;;
56860;SDS011;42744;51.094;3.490;2023-04-24T05:38:12;20.13;;;11.90;;
56860;SDS011;42744;51.094;3.490;2023-04-24T05:40:39;25.47;;;12.47;;
56860;SDS011;42744;51.094;3.490;2023-04-24T05:43:05;19.20;;;11.97;;
56860;SDS011;42744;51.094;3.490;2023-04-24T05:45:31;22.47;;;12.07;;
56860;SDS011;42744;51.094;3.490;2023-04-24T05:47:57;21.13;;;11.50;;
56860;SDS011;42744;51.094;3.490;2023-04-24T05:50:23;24.10;;;12.73;;
56860;SDS011;42744;51.094;3.490;2023-04-24T05:52:49;22.37;;;11.87;;
56860;SDS011;42744;51.094;3.490;2023-04-24T05:55:16;24.27;;;12.33;;
56860;SDS011;42744;51.094;3.490;2023-04-24T05:57:43;24.07;;;12.30;;
56860;SDS011;42744;51.094;3.490;2023-04-24T06:00:10;21.30;;;12.33;;
56860;SDS011;42744;51.094;3.490;2023-04-24T06:02:38;23.10;;;13.03;;
56860;SDS011;42744;51.094;3.490;2023-04-24T06:07:22;17.70;;;11.03;;
56860;SDS011;42744;51.094;3.490;2023-04-24T06:09:49;16.13;;;10.20;;
56860;SDS011;42744;51.094;3.490;2023-04-24T06:12:15;18.80;;;10.63;;
56860;SDS011;42744;51.094;3.490;2023-04-24T06:14:43;21.53;;;9.97;;
56860;SDS011;42744;51.094;3.490;2023-04-24T06:17:10;18.43;;;9.80;;
56860;SDS011;42744;51.094;3.490;2023-04-24T06:19:36;18.50;;;10.07;;
56860;SDS011;42744;51.094;3.490;2023-04-24T06:22:02;23.17;;;10.97;;
56860;SDS011;42744;51.094;3.490;2023-04-24T06:24:28;20.63;;;11.87;;
56860;SDS011;42744;51.094;3.490;2023-04-24T06:26:55;22.57;;;11.00;;
56860;SDS011;42744;51.094;3.490;2023-04-24T06:29:22;21.33;;;9.50;;
56860;SDS011;42744;51.094;3.490;2023-04-24T06:31:49;19.60;;;8.90;;
56860;SDS011;42744;51.094;3.490;2023-04-24T06:34:15;17.80;;;9.07;;
56860;SDS011;42744;51.094;3.490;2023-04-24T06:36:41;17.27;;;8.47;;
56860;SDS011;42744;51.094;3.490;2023-04-24T06:39:07;20.10;;;8.47;;
56860;SDS011;42744;51.094;3.490;2023-04-24T06:41:33;17.67;;;8.27;;
56860;SDS011;42744;51.094;3.490;2023-04-24T06:43:59;17.10;;;7.57;;
56860;SDS011;42744;51.094;3.490;2023-04-24T06:46:26;15.50;;;7.20;;
56860;SDS011;42744;51.094;3.490;2023-04-24T06:48:55;19.67;;;7.27;;
56860;SDS011;42744;51.094;3.490;2023-04-24T06:51:25;18.57;;;7.70;;
56860;SDS011;42744;51.094;3.490;2023-04-24T06:53:52;17.67;;;6.90;;
56860;SDS011;42744;51.094;3.490;2023-04-24T06:56:19;15.03;;;6.70;;
56860;SDS011;42744;51.094;3.490;2023-04-24T06:58:45;12.23;;;6.73;;
56860;SDS011;42744;51.094;3.490;2023-04-24T07:01:12;17.93;;;7.10;;
56860;SDS011;42744;51.094;3.490;2023-04-24T07:03:38;19.20;;;6.80;;
56860;SDS011;42744;51.094;3.490;2023-04-24T07:06:04;17.17;;;6.33;;
56860;SDS011;42744;51.094;3.490;2023-04-24T07:08:30;15.70;;;6.67;;
56860;SDS011;42744;51.094;3.490;2023-04-24T07:10:58;13.87;;;7.13;;
56860;SDS011;42744;51.094;3.490;2023-04-24T07:13:24;20.27;;;7.47;;
56860;SDS011;42744;51.094;3.490;2023-04-24T07:15:50;16.70;;;6.80;;
56860;SDS011;42744;51.094;3.490;2023-04-24T07:18:19;13.93;;;7.07;;
56860;SDS011;42744;51.094;3.490;2023-04-24T07:20:46;21.27;;;7.63;;
56860;SDS011;42744;51.094;3.490;2023-04-24T07:23:12;17.47;;;6.30;;
56860;SDS011;42744;51.094;3.490;2023-04-24T07:25:38;16.93;;;6.53;;
56860;SDS011;42744;51.094;3.490;2023-04-24T07:28:04;14.60;;;6.43;;
56860;SDS011;42744;51.094;3.490;2023-04-24T07:30:31;15.37;;;6.37;;
56860;SDS011;42744;51.094;3.490;2023-04-24T07:32:58;13.70;;;6.10;;
56860;SDS011;42744;51.094;3.490;2023-04-24T07:35:24;13.80;;;5.60;;
56860;SDS011;42744;51.094;3.490;2023-04-24T07:37:52;15.90;;;6.77;;
56860;SDS011;42744;51.094;3.490;2023-04-24T07:40:18;14.97;;;6.00;;
56860;SDS011;42744;51.094;3.490;2023-04-24T07:42:45;18.43;;;7.77;;
56860;SDS011;42744;51.094;3.490;2023-04-24T07:45:14;14.70;;;5.90;;
56860;SDS011;42744;51.094;3.490;2023-04-24T07:47:43;15.93;;;6.27;;
56860;SDS011;42744;51.094;3.490;2023-04-24T07:50:11;10.57;;;5.47;;
56860;SDS011;42744;51.094;3.490;2023-04-24T07:52:38;15.50;;;5.53;;
56860;SDS011;42744;51.094;3.490;2023-04-24T07:55:04;22.43;;;4.70;;
56860;SDS011;42744;51.094;3.490;2023-04-24T07:57:30;11.27;;;4.77;;
56860;SDS011;42744;51.094;3.490;2023-04-24T08:00:06;11.17;;;5.50;;
56860;SDS011;42744;51.094;3.490;2023-04-24T08:02:36;12.83;;;5.10;;
56860;SDS011;42744;51.094;3.490;2023-04-24T08:05:03;12.50;;;5.50;;
56860;SDS011;42744;51.094;3.490;2023-04-24T08:07:29;12.03;;;4.93;;
56860;SDS011;42744;51.094;3.490;2023-04-24T08:09:55;11.17;;;4.40;;
56860;SDS011;42744;51.094;3.490;2023-04-24T08:12:21;12.00;;;4.00;;
56860;SDS011;42744;51.094;3.490;2023-04-24T08:14:47;8.97;;;4.67;;
56860;SDS011;42744;51.094;3.490;2023-04-24T08:17:13;10.90;;;4.10;;
56860;SDS011;42744;51.094;3.490;2023-04-24T08:19:40;11.17;;;3.90;;
56860;SDS011;42744;51.094;3.490;2023-04-24T08:22:12;10.93;;;3.77;;
56860;SDS011;42744;51.094;3.490;2023-04-24T08:24:39;10.73;;;3.93;;
56860;SDS011;42744;51.094;3.490;2023-04-24T08:27:05;8.97;;;3.17;;
56860;SDS011;42744;51.094;3.490;2023-04-24T08:29:31;5.90;;;3.43;;
56860;SDS011;42744;51.094;3.490;2023-04-24T08:31:57;10.07;;;3.93;;
56860;SDS011;42744;51.094;3.490;2023-04-24T08:34:23;8.93;;;4.40;;
56860;SDS011;42744;51.094;3.490;2023-04-24T08:36:49;8.07;;;4.00;;
56860;SDS011;42744;51.094;3.490;2023-04-24T08:39:16;11.10;;;5.23;;
56860;SDS011;42744;51.094;3.490;2023-04-24T08:41:43;15.23;;;4.97;;
56860;SDS011;42744;51.094;3.490;2023-04-24T08:44:10;10.37;;;4.80;;
56860;SDS011;42744;51.094;3.490;2023-04-24T08:46:38;11.53;;;4.97;;
56860;SDS011;42744;51.094;3.490;2023-04-24T08:49:06;9.73;;;4.37;;
56860;SDS011;42744;51.094;3.490;2023-04-24T08:51:31;10.57;;;4.77;;
56860;SDS011;42744;51.094;3.490;2023-04-24T08:53:58;10.90;;;4.37;;
56860;SDS011;42744;51.094;3.490;2023-04-24T08:56:24;9.10;;;3.90;;
56860;SDS011;42744;51.094;3.490;2023-04-24T08:58:54;10.53;;;4.23;;
56860;SDS011;42744;51.094;3.490;2023-04-24T09:01:20;10.17;;;4.00;;
56860;SDS011;42744;51.094;3.490;2023-04-24T09:03:48;13.93;;;4.93;;
56860;SDS011;42744;51.094;3.490;2023-04-24T09:06:19;11.43;;;4.37;;
56860;SDS011;42744;51.094;3.490;2023-04-24T09:08:48;8.00;;;4.47;;
56860;SDS011;42744;51.094;3.490;2023-04-24T09:11:22;9.40;;;4.67;;
56860;SDS011;42744;51.094;3.490;2023-04-24T09:13:50;7.70;;;4.27;;
56860;SDS011;42744;51.094;3.490;2023-04-24T09:16:16;8.57;;;4.33;;
56860;SDS011;42744;51.094;3.490;2023-04-24T09:18:43;9.83;;;5.23;;
56860;SDS011;42744;51.094;3.490;2023-04-24T09:21:10;11.30;;;4.87;;
56860;SDS011;42744;51.094;3.490;2023-04-24T09:23:35;9.70;;;4.40;;
56860;SDS011;42744;51.094;3.490;2023-04-24T09:26:02;9.93;;;4.50;;
56860;SDS011;42744;51.094;3.490;2023-04-24T09:28:30;10.90;;;5.33;;
56860;SDS011;42744;51.094;3.490;2023-04-24T09:31:01;7.27;;;4.27;;
56860;SDS011;42744;51.094;3.490;2023-04-24T09:33:35;7.07;;;4.27;;
56860;SDS011;42744;51.094;3.490;2023-04-24T09:36:02;10.43;;;4.10;;
56860;SDS011;42744;51.094;3.490;2023-04-24T09:38:32;9.63;;;4.80;;
56860;SDS011;42744;51.094;3.490;2023-04-24T09:41:03;7.43;;;4.47;;
56860;SDS011;42744;51.094;3.490;2023-04-24T09:43:31;12.30;;;4.90;;
56860;SDS011;42744;51.094;3.490;2023-04-24T09:45:58;7.73;;;3.83;;
56860;SDS011;42744;51.094;3.490;2023-04-24T09:48:36;6.63;;;3.73;;
56860;SDS011;42744;51.094;3.490;2023-04-24T09:51:03;7.63;;;4.33;;
56860;SDS011;42744;51.094;3.490;2023-04-24T09:53:36;8.77;;;3.63;;
56860;SDS011;42744;51.094;3.490;2023-04-24T09:56:08;9.50;;;3.60;;
56860;SDS011;42744;51.094;3.490;2023-04-24T09:58:38;11.37;;;3.90;;
56860;SDS011;42744;51.094;3.490;2023-04-24T10:01:04;7.30;;;3.93;;
56860;SDS011;42744;51.094;3.490;2023-04-24T10:03:33;7.27;;;3.50;;
56860;SDS011;42744;51.094;3.490;2023-04-24T10:06:00;7.47;;;3.77;;
56860;SDS011;42744;51.094;3.490;2023-04-24T10:08:26;7.27;;;3.80;;
56860;SDS011;42744;51.094;3.490;2023-04-24T10:11:00;8.17;;;4.03;;
56860;SDS011;42744;51.094;3.490;2023-04-24T10:13:26;9.10;;;3.63;;
56860;SDS011;42744;51.094;3.490;2023-04-24T10:15:53;8.53;;;3.40;;
56860;SDS011;42744;51.094;3.490;2023-04-24T10:18:21;7.30;;;3.20;;
56860;SDS011;42744;51.094;3.490;2023-04-24T10:20:48;9.10;;;4.50;;
56860;SDS011;42744;51.094;3.490;2023-04-24T10:23:14;6.73;;;3.83;;
56860;SDS011;42744;51.094;3.490;2023-04-24T10:25:42;6.60;;;3.77;;
56860;SDS011;42744;51.094;3.490;2023-04-24T10:28:08;9.33;;;2.90;;
56860;SDS011;42744;51.094;3.490;2023-04-24T10:30:35;6.90;;;2.73;;
56860;SDS011;42744;51.094;3.490;2023-04-24T10:33:02;6.67;;;2.80;;
56860;SDS011;42744;51.094;3.490;2023-04-24T10:35:33;8.17;;;3.30;;
56860;SDS011;42744;51.094;3.490;2023-04-24T10:38:12;8.80;;;3.20;;
56860;SDS011;42744;51.094;3.490;2023-04-24T10:40:40;7.30;;;2.80;;
56860;SDS011;42744;51.094;3.490;2023-04-24T10:43:07;7.57;;;3.43;;
56860;SDS011;42744;51.094;3.490;2023-04-24T10:45:36;7.60;;;3.10;;
56860;SDS011;42744;51.094;3.490;2023-04-24T10:48:04;6.83;;;2.93;;
56860;SDS011;42744;51.094;3.490;2023-04-24T10:50:43;5.17;;;2.60;;
56860;SDS011;42744;51.094;3.490;2023-04-24T10:53:29;7.00;;;3.20;;
56860;SDS011;42744;51.094;3.490;2023-04-24T10:58:37;7.07;;;2.90;;
56860;SDS011;42744;51.094;3.490;2023-04-24T11:01:07;6.57;;;3.13;;
56860;SDS011;42744;51.094;3.490;2023-04-24T11:03:34;6.67;;;2.80;;
56860;SDS011;42744;51.094;3.490;2023-04-24T11:06:02;5.47;;;2.50;;
56860;SDS011;42744;51.094;3.490;2023-04-24T11:08:42;6.00;;;2.40;;
56860;SDS011;42744;51.094;3.490;2023-04-24T11:11:14;6.50;;;3.10;;
56860;SDS011;42744;51.094;3.490;2023-04-24T11:21:31;5.10;;;2.37;;
56860;SDS011;42744;51.094;3.490;2023-04-24T11:34:59;4.53;;;2.30;;
56860;SDS011;42744;51.094;3.490;2023-04-24T11:37:36;6.10;;;2.30;;
56860;SDS011;42744;51.094;3.490;2023-04-24T11:40:07;6.60;;;2.77;;
56860;SDS011;42744;51.094;3.490;2023-04-24T11:42:37;7.93;;;2.57;;
56860;SDS011;42744;51.094;3.490;2023-04-24T11:45:08;5.23;;;2.10;;
56860;SDS011;42744;51.094;3.490;2023-04-24T11:47:35;6.17;;;1.83;;
56860;SDS011;42744;51.094;3.490;2023-04-24T11:50:02;4.07;;;2.00;;
56860;SDS011;42744;51.094;3.490;2023-04-24T11:52:30;4.73;;;1.80;;
56860;SDS011;42744;51.094;3.490;2023-04-24T11:54:57;6.07;;;2.27;;
56860;SDS011;42744;51.094;3.490;2023-04-24T11:57:24;3.73;;;1.83;;
56860;SDS011;42744;51.094;3.490;2023-04-24T11:59:54;4.57;;;1.60;;
56860;SDS011;42744;51.094;3.490;2023-04-24T12:02:26;5.43;;;1.50;;
56860;SDS011;42744;51.094;3.490;2023-04-24T12:04:53;3.63;;;1.60;;
56860;SDS011;42744;51.094;3.490;2023-04-24T12:07:22;3.93;;;1.57;;
56860;SDS011;42744;51.094;3.490;2023-04-24T12:09:56;6.07;;;1.70;;
56860;SDS011;42744;51.094;3.490;2023-04-24T12:12:28;3.90;;;1.60;;
56860;SDS011;42744;51.094;3.490;2023-04-24T12:14:57;6.50;;;1.73;;
56860;SDS011;42744;51.094;3.490;2023-04-24T12:17:25;2.47;;;1.23;;
56860;SDS011;42744;51.094;3.490;2023-04-24T12:25:19;2.97;;;1.37;;
56860;SDS011;42744;51.094;3.490;2023-04-24T12:27:46;5.00;;;1.73;;
56860;SDS011;42744;51.094;3.490;2023-04-24T12:30:17;3.77;;;1.30;;
56860;SDS011;42744;51.094;3.490;2023-04-24T12:32:44;5.10;;;1.47;;
56860;SDS011;42744;51.094;3.490;2023-04-24T12:35:12;3.67;;;1.23;;
56860;SDS011;42744;51.094;3.490;2023-04-24T12:37:38;3.17;;;1.30;;
56860;SDS011;42744;51.094;3.490;2023-04-24T12:40:11;4.40;;;1.50;;
56860;SDS011;42744;51.094;3.490;2023-04-24T12:42:42;8.90;;;1.60;;
56860;SDS011;42744;51.094;3.490;2023-04-24T12:45:09;3.13;;;1.30;;
56860;SDS011;42744;51.094;3.490;2023-04-24T12:47:37;3.40;;;1.20;;
56860;SDS011;42744;51.094;3.490;2023-04-24T12:50:04;3.73;;;1.20;;
56860;SDS011;42744;51.094;3.490;2023-04-24T12:52:31;3.57;;;1.40;;
56860;SDS011;42744;51.094;3.490;2023-04-24T12:54:57;2.70;;;1.00;;
56860;SDS011;42744;51.094;3.490;2023-04-24T12:57:25;2.17;;;1.00;;
56860;SDS011;42744;51.094;3.490;2023-04-24T12:59:57;2.03;;;0.90;;
56860;SDS011;42744;51.094;3.490;2023-04-24T13:02:27;2.97;;;1.10;;
56860;SDS011;42744;51.094;3.490;2023-04-24T13:04:55;3.00;;;1.27;;
56860;SDS011;42744;51.094;3.490;2023-04-24T13:07:22;5.93;;;1.23;;
56860;SDS011;42744;51.094;3.490;2023-04-24T13:09:49;2.07;;;1.13;;
56860;SDS011;42744;51.094;3.490;2023-04-24T13:12:16;3.67;;;0.90;;
56860;SDS011;42744;51.094;3.490;2023-04-24T13:14:42;4.23;;;0.93;;
56860;SDS011;42744;51.094;3.490;2023-04-24T13:17:08;3.33;;;0.80;;
56860;SDS011;42744;51.094;3.490;2023-04-24T13:19:39;4.97;;;1.30;;
56860;SDS011;42744;51.094;3.490;2023-04-24T13:22:06;4.13;;;1.03;;
56860;SDS011;42744;51.094;3.490;2023-04-24T13:24:34;2.83;;;0.77;;
56860;SDS011;42744;51.094;3.490;2023-04-24T13:27:00;3.03;;;0.90;;
56860;SDS011;42744;51.094;3.490;2023-04-24T13:29:27;2.33;;;0.90;;
56860;SDS011;42744;51.094;3.490;2023-04-24T13:31:53;3.17;;;1.00;;
56860;SDS011;42744;51.094;3.490;2023-04-24T13:34:24;2.70;;;0.60;;
56860;SDS011;42744;51.094;3.490;2023-04-24T13:36:52;1.57;;;0.53;;
56860;SDS011;42744;51.094;3.490;2023-04-24T13:39:19;1.97;;;0.90;;
56860;SDS011;42744;51.094;3.490;2023-04-24T13:41:45;2.40;;;0.87;;
56860;SDS011;42744;51.094;3.490;2023-04-24T13:44:13;1.03;;;0.70;;
56860;SDS011;42744;51.094;3.490;2023-04-24T13:46:40;3.60;;;0.90;;
56860;SDS011;42744;51.094;3.490;2023-04-24T13:49:07;2.30;;;0.60;;
56860;SDS011;42744;51.094;3.490;2023-04-24T13:51:33;3.23;;;0.73;;
56860;SDS011;42744;51.094;3.490;2023-04-24T13:53:59;2.20;;;0.80;;
56860;SDS011;42744;51.094;3.490;2023-04-24T13:56:25;2.77;;;0.80;;
56860;SDS011;42744;51.094;3.490;2023-04-24T13:58:51;2.70;;;0.87;;
56860;SDS011;42744;51.094;3.490;2023-04-24T14:01:19;1.30;;;0.80;;
56860;SDS011;42744;51.094;3.490;2023-04-24T14:03:49;6.70;;;1.33;;
56860;SDS011;42744;51.094;3.490;2023-04-24T14:06:16;2.00;;;0.80;;
56860;SDS011;42744;51.094;3.490;2023-04-24T14:08:46;1.87;;;0.60;;
56860;SDS011;42744;51.094;3.490;2023-04-24T14:11:13;1.97;;;0.83;;
56860;SDS011;42744;51.094;3.490;2023-04-24T14:13:40;2.83;;;0.90;;
56860;SDS011;42744;51.094;3.490;2023-04-24T14:16:06;3.17;;;1.00;;
56860;SDS011;42744;51.094;3.490;2023-04-24T14:18:33;3.37;;;1.10;;
56860;SDS011;42744;51.094;3.490;2023-04-24T14:20:59;3.67;;;1.03;;
56860;SDS011;42744;51.094;3.490;2023-04-24T14:23:26;2.47;;;0.90;;
56860;SDS011;42744;51.094;3.490;2023-04-24T14:25:53;3.20;;;1.00;;
56860;SDS011;42744;51.094;3.490;2023-04-24T14:28:19;2.20;;;0.90;;
56860;SDS011;42744;51.094;3.490;2023-04-24T14:30:46;2.97;;;0.93;;
56860;SDS011;42744;51.094;3.490;2023-04-24T14:33:13;3.13;;;1.33;;
56860;SDS011;42744;51.094;3.490;2023-04-24T14:35:40;2.47;;;1.47;;
56860;SDS011;42744;51.094;3.490;2023-04-24T14:38:09;4.10;;;1.60;;
56860;SDS011;42744;51.094;3.490;2023-04-24T14:40:36;3.63;;;1.50;;
56860;SDS011;42744;51.094;3.490;2023-04-24T14:43:02;2.67;;;1.40;;
56860;SDS011;42744;51.094;3.490;2023-04-24T14:45:28;3.93;;;1.43;;
56860;SDS011;42744;51.094;3.490;2023-04-24T14:47:55;3.00;;;1.70;;
56860;SDS011;42744;51.094;3.490;2023-04-24T14:50:21;2.53;;;1.27;;
56860;SDS011;42744;51.094;3.490;2023-04-24T14:52:47;4.07;;;1.40;;
56860;SDS011;42744;51.094;3.490;2023-04-24T14:55:13;5.00;;;1.67;;
56860;SDS011;42744;51.094;3.490;2023-04-24T14:57:39;5.33;;;1.87;;
56860;SDS011;42744;51.094;3.490;2023-04-24T15:00:06;4.73;;;1.53;;
56860;SDS011;42744;51.094;3.490;2023-04-24T15:02:35;5.63;;;1.67;;
56860;SDS011;42744;51.094;3.490;2023-04-24T15:05:05;2.87;;;1.43;;
56860;SDS011;42744;51.094;3.490;2023-04-24T15:07:32;2.43;;;1.40;;